This is the latest recevied weather packets stored in our database for station/object M0JUI-1. If no packets are shown the sender has not sent any weather packets the latest 10 day(s).
| Time | Temp. | Humidity | Pressure | Rain* | Wind** | Luminosity | Snow |
|---|---|---|---|---|---|---|---|
| 1777478582 | 15.56° C | 59% | 1025.4 hPa | 0 mm | - | 113 W/m² | - |
| 1777478282 | 15.56° C | 59% | 1025.4 hPa | 0 mm | - | 109 W/m² | - |
| 1777477982 | 15.56° C | 58% | 1025.5 hPa | 0 mm | - | 134 W/m² | - |
| 1777477670 | 16.11° C | 59% | 1025.8 hPa | 0 mm | - | 173 W/m² | - |
| 1777477358 | 16.11° C | 58% | 1025.8 hPa | 0 mm | - | 255 W/m² | - |
| 1777477046 | 16.11° C | 59% | 1026 hPa | 0 mm | - | 267 W/m² | - |
| 1777476746 | 16.67° C | 59% | 1026 hPa | 0 mm | - | 324 W/m² | - |
| 1777476446 | 16.67° C | 59% | 1026.1 hPa | 0 mm | - | 347 W/m² | - |
| 1777476146 | 16.67° C | 59% | 1026.3 hPa | 0 mm | - | 306 W/m² | - |
| 1777475846 | 16.67° C | 59% | 1026.3 hPa | 0 mm | - | 282 W/m² | - |
| 1777475546 | 16.67° C | 58% | 1026.2 hPa | 0 mm | - | 375 W/m² | - |
| 1777475246 | 16.67° C | 57% | 1026.1 hPa | 0 mm | - | 483 W/m² | - |
| 1777474935 | 16.67° C | 56% | 1026 hPa | 0 mm | - | 511 W/m² | - |
| 1777474635 | 16.67° C | 57% | 1025.9 hPa | 0 mm | - | 510 W/m² | - |
| 1777474334 | 17.22° C | 57% | 1026.1 hPa | 0 mm | - | 502 W/m² | - |
| 1777474023 | 16.67° C | 56% | 1026 hPa | 0 mm | - | 519 W/m² | - |
| 1777473722 | 16.67° C | 57% | 1026.1 hPa | 0 mm | - | 541 W/m² | - |
| 1777473422 | 16.67° C | 56% | 1026 hPa | 0 mm | - | 534 W/m² | - |
| 1777473111 | 16.11° C | 56% | 1025.6 hPa | 0 mm | - | 546 W/m² | - |
| 1777472810 | 16.67° C | 57% | 1025.9 hPa | 0 mm | - | 555 W/m² | - |
| 1777472511 | 16.67° C | 56% | 1025.9 hPa | 0 mm | - | 573 W/m² | - |
| 1777472198 | 16.67° C | 56% | 1026.2 hPa | 0 mm | - | 558 W/m² | - |
| 1777471898 | 16.67° C | 55% | 1026 hPa | 0 mm | - | 545 W/m² | - |
| 1777471599 | 16.67° C | 54% | 1026.2 hPa | 0 mm | - | 573 W/m² | - |
| 1777471286 | 16.67° C | 54% | 1026.3 hPa | 0 mm | - | 580 W/m² | - |
* Rain latest hour (hover to see other rain measurements)
** Current wind speed in m/s (hover to see current wind gust speed)